Hewitt, TX (76643)

9:50 AM CST on February 11, 2016 (GMT -0600)
Chapel Ridge | | Change Station
CLOSE
Current Station
Personal Weather Station
Location: Waco, TX
Elevation: 699 ft
Nearby Weather Stations

Elev 699 ft 31.47 °N, 97.22 °W | Updated 26 seconds ago

Clear
Clear
64.6 °F
Feels Like 64.6 °F
N
8.1
Wind Variable Wind from SW
Gusts 9.8 mph

Today
High -- | Low -- °F
--% Chance of Precip.
Yesterday
High -- | Low -- °F
Precip. -- in
Pressure 30.17 in
Visibility 10.0 miles
Clouds Clear
Dew Point 33 °F
Humidity 31%
Rainfall 0.00 in
Snow Depth Not available.
7:14 AM 6:12 PM
Waxing Crescent, 12% visible
METAR KPWG 111456Z AUTO 20008KT 10SM CLR 13/02 A3012 RMK AO2 SLP215 T01330017 53012
Pressure 30.17 in
Visibility 10.0 miles
Clouds Clear
Dew Point 33 °F
Humidity 31%
Rainfall 0.00 in
Snow Depth Not available.
7:14 AM 6:12 PM
Waxing Crescent, 12% visible
METAR KPWG 111456Z AUTO 20008KT 10SM CLR 13/02 A3012 RMK AO2 SLP215 T01330017 53012

10-Day Weather Forecast

Almanac

Astronomy

Feb. 11, 2016 Rise Set
Actual Time
Civil Twilight
Nautical Twilight
Astronomical Twilight
Moon
Length of Visible Light
Length of Day
Tomorrow will be .
, % of the Moon is Illuminated

Today's Extremes

State Highs State Lows

Community

WunderPhotos

Upload Photos

1,892,081 photos uploaded!

WunderBlog® & News

Nearby

Air Quality

  Air Quality AQ Index Pollutant
Not available.

Snow Depth

Station Depth Elevation

Earthquake Activity

City Distance Mag. Time & Date
Minimum magnitude displayed is 2.5.

Coastal Water Temperatures

Place Temperature

Stations

Nearby Weather Stations

Station Location Temp. Windchill Dew Point Humidity Wind Precip. Elev Updated Type
                   

Watches & Warnings

There are currently no watches in effect.